sensor_id;sensor_type;location;lat;lon;timestamp;temperature;humidity
63094;DHT22;49183;51.380;0.098;2023-02-12T00:00:10;6.80;86.60
63094;DHT22;49183;51.380;0.098;2023-02-12T00:02:41;6.90;86.70
63094;DHT22;49183;51.380;0.098;2023-02-12T00:05:08;6.90;86.70
63094;DHT22;49183;51.380;0.098;2023-02-12T00:07:36;6.80;86.70
63094;DHT22;49183;51.380;0.098;2023-02-12T00:10:03;6.80;86.70
63094;DHT22;49183;51.380;0.098;2023-02-12T00:12:31;6.90;86.80
63094;DHT22;49183;51.380;0.098;2023-02-12T00:14:58;6.80;86.80
63094;DHT22;49183;51.380;0.098;2023-02-12T00:17:26;6.80;86.80
63094;DHT22;49183;51.380;0.098;2023-02-12T00:19:53;6.80;86.80
63094;DHT22;49183;51.380;0.098;2023-02-12T00:22:21;6.80;86.80
63094;DHT22;49183;51.380;0.098;2023-02-12T00:24:48;6.80;86.90
63094;DHT22;49183;51.380;0.098;2023-02-12T00:27:16;6.80;86.90
63094;DHT22;49183;51.380;0.098;2023-02-12T00:29:44;6.80;86.90
63094;DHT22;49183;51.380;0.098;2023-02-12T00:32:12;6.80;86.90
63094;DHT22;49183;51.380;0.098;2023-02-12T00:34:40;6.80;87.00
63094;DHT22;49183;51.380;0.098;2023-02-12T00:37:07;6.80;87.00
63094;DHT22;49183;51.380;0.098;2023-02-12T00:39:35;6.80;87.00
63094;DHT22;49183;51.380;0.098;2023-02-12T00:42:04;6.70;87.00
63094;DHT22;49183;51.380;0.098;2023-02-12T00:44:31;6.70;87.00
63094;DHT22;49183;51.380;0.098;2023-02-12T00:46:59;6.70;87.10
63094;DHT22;49183;51.380;0.098;2023-02-12T00:49:30;6.70;87.00
63094;DHT22;49183;51.380;0.098;2023-02-12T00:52:01;6.70;87.00
63094;DHT22;49183;51.380;0.098;2023-02-12T00:54:30;6.60;87.10
63094;DHT22;49183;51.380;0.098;2023-02-12T00:56:57;6.60;87.10
63094;DHT22;49183;51.380;0.098;2023-02-12T00:59:28;6.70;87.10
63094;DHT22;49183;51.380;0.098;2023-02-12T01:01:56;6.60;87.10
63094;DHT22;49183;51.380;0.098;2023-02-12T01:04:23;6.70;87.10
63094;DHT22;49183;51.380;0.098;2023-02-12T01:06:51;6.70;87.20
63094;DHT22;49183;51.380;0.098;2023-02-12T01:09:18;6.60;87.20
63094;DHT22;49183;51.380;0.098;2023-02-12T01:11:47;6.60;87.20
63094;DHT22;49183;51.380;0.098;2023-02-12T01:14:15;6.60;87.20
63094;DHT22;49183;51.380;0.098;2023-02-12T01:16:42;6.60;87.30
63094;DHT22;49183;51.380;0.098;2023-02-12T01:19:10;6.60;87.30
63094;DHT22;49183;51.380;0.098;2023-02-12T01:21:38;6.60;87.30
63094;DHT22;49183;51.380;0.098;2023-02-12T01:24:06;6.60;87.30
63094;DHT22;49183;51.380;0.098;2023-02-12T01:26:33;6.60;87.40
63094;DHT22;49183;51.380;0.098;2023-02-12T01:29:03;6.60;87.30
63094;DHT22;49183;51.380;0.098;2023-02-12T01:31:32;6.60;87.30
63094;DHT22;49183;51.380;0.098;2023-02-12T01:34:01;6.60;87.40
63094;DHT22;49183;51.380;0.098;2023-02-12T01:36:29;6.60;87.40
63094;DHT22;49183;51.380;0.098;2023-02-12T01:38:57;6.60;87.40
63094;DHT22;49183;51.380;0.098;2023-02-12T01:41:26;6.60;87.50
63094;DHT22;49183;51.380;0.098;2023-02-12T01:46:34;6.60;87.40
63094;DHT22;49183;51.380;0.098;2023-02-12T01:49:03;6.60;87.40
63094;DHT22;49183;51.380;0.098;2023-02-12T01:51:31;6.60;87.40
63094;DHT22;49183;51.380;0.098;2023-02-12T01:54:02;6.60;87.50
63094;DHT22;49183;51.380;0.098;2023-02-12T01:56:31;6.60;87.50
63094;DHT22;49183;51.380;0.098;2023-02-12T01:58:59;6.60;87.60
63094;DHT22;49183;51.380;0.098;2023-02-12T02:01:27;6.50;87.60
63094;DHT22;49183;51.380;0.098;2023-02-12T02:04:00;6.50;87.60
63094;DHT22;49183;51.380;0.098;2023-02-12T02:06:33;6.50;87.60
63094;DHT22;49183;51.380;0.098;2023-02-12T02:09:01;6.50;87.60
63094;DHT22;49183;51.380;0.098;2023-02-12T02:11:29;6.50;87.70
63094;DHT22;49183;51.380;0.098;2023-02-12T02:14:15;6.50;87.70
63094;DHT22;49183;51.380;0.098;2023-02-12T02:19:53;6.40;87.70
63094;DHT22;49183;51.380;0.098;2023-02-12T02:22:26;6.40;87.70
63094;DHT22;49183;51.380;0.098;2023-02-12T02:35:31;6.40;87.90
63094;DHT22;49183;51.380;0.098;2023-02-12T02:38:05;6.40;87.80
63094;DHT22;49183;51.380;0.098;2023-02-12T02:40:39;6.40;87.90
63094;DHT22;49183;51.380;0.098;2023-02-12T02:43:08;6.40;87.90
63094;DHT22;49183;51.380;0.098;2023-02-12T02:46:02;6.40;87.90
63094;DHT22;49183;51.380;0.098;2023-02-12T02:48:32;6.40;87.90
63094;DHT22;49183;51.380;0.098;2023-02-12T02:51:02;6.40;87.90
63094;DHT22;49183;51.380;0.098;2023-02-12T02:53:44;6.40;88.00
63094;DHT22;49183;51.380;0.098;2023-02-12T02:56:15;6.30;88.00
63094;DHT22;49183;51.380;0.098;2023-02-12T02:58:48;6.40;88.00
63094;DHT22;49183;51.380;0.098;2023-02-12T03:01:19;6.40;88.00
63094;DHT22;49183;51.380;0.098;2023-02-12T03:04:07;6.30;88.00
63094;DHT22;49183;51.380;0.098;2023-02-12T03:06:40;6.40;88.00
63094;DHT22;49183;51.380;0.098;2023-02-12T03:09:14;6.30;88.00
63094;DHT22;49183;51.380;0.098;2023-02-12T03:11:44;6.30;88.00
63094;DHT22;49183;51.380;0.098;2023-02-12T03:14:20;6.30;88.00
63094;DHT22;49183;51.380;0.098;2023-02-12T03:19:23;6.30;88.10
63094;DHT22;49183;51.380;0.098;2023-02-12T03:21:54;6.30;88.10
63094;DHT22;49183;51.380;0.098;2023-02-12T03:24:38;6.30;88.10
63094;DHT22;49183;51.380;0.098;2023-02-12T03:27:10;6.30;88.10
63094;DHT22;49183;51.380;0.098;2023-02-12T03:29:39;6.30;88.10
63094;DHT22;49183;51.380;0.098;2023-02-12T03:44:56;6.30;88.20
63094;DHT22;49183;51.380;0.098;2023-02-12T03:50:01;6.30;88.20
63094;DHT22;49183;51.380;0.098;2023-02-12T03:52:29;6.30;88.20
63094;DHT22;49183;51.380;0.098;2023-02-12T03:54:57;6.30;88.20
63094;DHT22;49183;51.380;0.098;2023-02-12T03:57:26;6.30;88.30
63094;DHT22;49183;51.380;0.098;2023-02-12T03:59:57;6.30;88.30
63094;DHT22;49183;51.380;0.098;2023-02-12T04:02:25;6.30;88.30
63094;DHT22;49183;51.380;0.098;2023-02-12T04:04:52;6.30;88.30
63094;DHT22;49183;51.380;0.098;2023-02-12T04:07:20;6.30;88.30
63094;DHT22;49183;51.380;0.098;2023-02-12T04:09:47;6.30;88.40
63094;DHT22;49183;51.380;0.098;2023-02-12T04:23:33;6.20;88.40
63094;DHT22;49183;51.380;0.098;2023-02-12T04:34:04;6.20;88.60
63094;DHT22;49183;51.380;0.098;2023-02-12T04:36:34;6.20;88.50
63094;DHT22;49183;51.380;0.098;2023-02-12T04:39:06;6.20;88.60
63094;DHT22;49183;51.380;0.098;2023-02-12T04:41:38;6.20;88.50
63094;DHT22;49183;51.380;0.098;2023-02-12T04:44:16;6.20;88.50
63094;DHT22;49183;51.380;0.098;2023-02-12T04:46:43;6.20;88.60
63094;DHT22;49183;51.380;0.098;2023-02-12T04:49:12;6.20;88.60
63094;DHT22;49183;51.380;0.098;2023-02-12T04:51:40;6.20;88.60
63094;DHT22;49183;51.380;0.098;2023-02-12T04:54:07;6.20;88.60
63094;DHT22;49183;51.380;0.098;2023-02-12T04:56:35;6.20;88.60
63094;DHT22;49183;51.380;0.098;2023-02-12T04:59:03;6.20;88.60
63094;DHT22;49183;51.380;0.098;2023-02-12T05:01:32;6.20;88.60
63094;DHT22;49183;51.380;0.098;2023-02-12T05:03:59;6.20;88.70
63094;DHT22;49183;51.380;0.098;2023-02-12T05:06:27;6.20;88.70
63094;DHT22;49183;51.380;0.098;2023-02-12T05:08:56;6.10;88.70
63094;DHT22;49183;51.380;0.098;2023-02-12T05:11:24;6.10;88.70
63094;DHT22;49183;51.380;0.098;2023-02-12T05:13:51;6.10;88.70
63094;DHT22;49183;51.380;0.098;2023-02-12T05:16:19;6.10;88.80
63094;DHT22;49183;51.380;0.098;2023-02-12T05:18:48;6.10;88.70
63094;DHT22;49183;51.380;0.098;2023-02-12T05:21:15;6.10;88.80
63094;DHT22;49183;51.380;0.098;2023-02-12T05:23:43;6.10;88.80
63094;DHT22;49183;51.380;0.098;2023-02-12T05:26:15;6.10;88.80
63094;DHT22;49183;51.380;0.098;2023-02-12T05:28:42;6.10;88.80
63094;DHT22;49183;51.380;0.098;2023-02-12T05:31:12;6.10;88.80
63094;DHT22;49183;51.380;0.098;2023-02-12T05:33:41;6.10;88.70
63094;DHT22;49183;51.380;0.098;2023-02-12T05:36:10;6.10;88.70
63094;DHT22;49183;51.380;0.098;2023-02-12T05:38:38;6.10;88.70
63094;DHT22;49183;51.380;0.098;2023-02-12T05:41:10;6.10;88.70
63094;DHT22;49183;51.380;0.098;2023-02-12T05:43:37;6.10;88.80
63094;DHT22;49183;51.380;0.098;2023-02-12T05:46:05;6.10;88.80
63094;DHT22;49183;51.380;0.098;2023-02-12T05:48:33;6.10;88.80
63094;DHT22;49183;51.380;0.098;2023-02-12T05:51:06;6.10;88.80
63094;DHT22;49183;51.380;0.098;2023-02-12T05:53:34;6.10;88.80
63094;DHT22;49183;51.380;0.098;2023-02-12T05:56:36;6.10;88.80
63094;DHT22;49183;51.380;0.098;2023-02-12T05:58:56;6.10;88.70
63094;DHT22;49183;51.380;0.098;2023-02-12T06:01:29;6.00;88.70
63094;DHT22;49183;51.380;0.098;2023-02-12T06:03:57;6.10;88.80
63094;DHT22;49183;51.380;0.098;2023-02-12T06:06:25;6.10;88.80
63094;DHT22;49183;51.380;0.098;2023-02-12T06:08:53;6.10;88.80
63094;DHT22;49183;51.380;0.098;2023-02-12T06:11:21;6.10;88.80
63094;DHT22;49183;51.380;0.098;2023-02-12T06:13:48;6.00;88.80
63094;DHT22;49183;51.380;0.098;2023-02-12T06:16:23;6.00;88.80
63094;DHT22;49183;51.380;0.098;2023-02-12T06:18:52;6.00;88.80
63094;DHT22;49183;51.380;0.098;2023-02-12T06:21:20;6.00;88.80
63094;DHT22;49183;51.380;0.098;2023-02-12T06:23:48;6.00;88.80
63094;DHT22;49183;51.380;0.098;2023-02-12T06:26:16;6.00;88.80
63094;DHT22;49183;51.380;0.098;2023-02-12T06:28:44;6.00;88.80
63094;DHT22;49183;51.380;0.098;2023-02-12T06:31:19;6.00;88.80
63094;DHT22;49183;51.380;0.098;2023-02-12T06:33:47;6.00;88.80
63094;DHT22;49183;51.380;0.098;2023-02-12T06:36:15;6.00;88.80
63094;DHT22;49183;51.380;0.098;2023-02-12T06:38:42;6.00;88.80
63094;DHT22;49183;51.380;0.098;2023-02-12T06:41:10;6.00;88.80
63094;DHT22;49183;51.380;0.098;2023-02-12T06:43:38;6.00;88.80
63094;DHT22;49183;51.380;0.098;2023-02-12T06:46:05;6.00;88.80
63094;DHT22;49183;51.380;0.098;2023-02-12T06:48:33;6.00;88.80
63094;DHT22;49183;51.380;0.098;2023-02-12T06:51:08;6.00;88.80
63094;DHT22;49183;51.380;0.098;2023-02-12T06:53:36;5.90;88.80
63094;DHT22;49183;51.380;0.098;2023-02-12T06:56:04;5.90;88.80
63094;DHT22;49183;51.380;0.098;2023-02-12T06:58:31;5.90;88.80
63094;DHT22;49183;51.380;0.098;2023-02-12T07:01:18;5.90;88.80
63094;DHT22;49183;51.380;0.098;2023-02-12T07:03:48;5.90;88.80
63094;DHT22;49183;51.380;0.098;2023-02-12T07:06:16;5.90;88.80
63094;DHT22;49183;51.380;0.098;2023-02-12T07:08:43;5.90;88.80
63094;DHT22;49183;51.380;0.098;2023-02-12T07:11:11;5.90;88.80
63094;DHT22;49183;51.380;0.098;2023-02-12T07:13:39;5.80;88.80
63094;DHT22;49183;51.380;0.098;2023-02-12T07:16:08;5.90;88.90
63094;DHT22;49183;51.380;0.098;2023-02-12T07:18:36;5.90;88.90
63094;DHT22;49183;51.380;0.098;2023-02-12T07:21:04;5.80;88.90
63094;DHT22;49183;51.380;0.098;2023-02-12T07:23:32;5.80;88.90
63094;DHT22;49183;51.380;0.098;2023-02-12T07:26:01;5.90;88.90
63094;DHT22;49183;51.380;0.098;2023-02-12T07:28:29;5.80;88.90
63094;DHT22;49183;51.380;0.098;2023-02-12T07:31:04;5.80;88.90
63094;DHT22;49183;51.380;0.098;2023-02-12T07:33:33;5.80;88.90
63094;DHT22;49183;51.380;0.098;2023-02-12T07:36:01;5.80;88.90
63094;DHT22;49183;51.380;0.098;2023-02-12T07:38:29;5.80;89.00
63094;DHT22;49183;51.380;0.098;2023-02-12T07:41:10;5.80;89.00
63094;DHT22;49183;51.380;0.098;2023-02-12T07:43:42;5.80;89.00
63094;DHT22;49183;51.380;0.098;2023-02-12T07:46:14;5.80;89.10
63094;DHT22;49183;51.380;0.098;2023-02-12T07:48:44;5.80;89.10
63094;DHT22;49183;51.380;0.098;2023-02-12T07:51:12;5.80;89.10
63094;DHT22;49183;51.380;0.098;2023-02-12T07:53:41;5.80;89.10
63094;DHT22;49183;51.380;0.098;2023-02-12T07:56:12;5.80;89.10
63094;DHT22;49183;51.380;0.098;2023-02-12T07:58:41;5.80;89.10
63094;DHT22;49183;51.380;0.098;2023-02-12T08:03:38;5.80;89.10
63094;DHT22;49183;51.380;0.098;2023-02-12T08:06:10;5.80;89.10
63094;DHT22;49183;51.380;0.098;2023-02-12T08:08:37;5.90;89.10
63094;DHT22;49183;51.380;0.098;2023-02-12T08:11:05;5.90;89.10
63094;DHT22;49183;51.380;0.098;2023-02-12T08:13:34;5.90;89.10
63094;DHT22;49183;51.380;0.098;2023-02-12T08:16:03;5.90;89.10
63094;DHT22;49183;51.380;0.098;2023-02-12T08:18:31;5.90;89.10
63094;DHT22;49183;51.380;0.098;2023-02-12T08:21:12;5.90;89.10
63094;DHT22;49183;51.380;0.098;2023-02-12T08:23:40;5.90;89.10
63094;DHT22;49183;51.380;0.098;2023-02-12T08:26:08;6.00;89.10
63094;DHT22;49183;51.380;0.098;2023-02-12T08:28:37;6.00;89.10
63094;DHT22;49183;51.380;0.098;2023-02-12T08:31:12;6.00;89.10
63094;DHT22;49183;51.380;0.098;2023-02-12T08:33:40;6.10;89.10
63094;DHT22;49183;51.380;0.098;2023-02-12T08:36:08;6.10;89.10
63094;DHT22;49183;51.380;0.098;2023-02-12T08:38:37;6.20;89.10
63094;DHT22;49183;51.380;0.098;2023-02-12T08:41:06;6.20;89.00
63094;DHT22;49183;51.380;0.098;2023-02-12T08:43:34;6.30;89.00
63094;DHT22;49183;51.380;0.098;2023-02-12T08:46:02;6.30;89.00
63094;DHT22;49183;51.380;0.098;2023-02-12T08:48:30;6.40;88.90
63094;DHT22;49183;51.380;0.098;2023-02-12T08:51:08;6.50;88.90
63094;DHT22;49183;51.380;0.098;2023-02-12T08:53:36;6.60;88.80
63094;DHT22;49183;51.380;0.098;2023-02-12T08:56:05;6.60;88.80
63094;DHT22;49183;51.380;0.098;2023-02-12T08:58:33;6.60;88.70
63094;DHT22;49183;51.380;0.098;2023-02-12T09:01:00;6.70;88.60
63094;DHT22;49183;51.380;0.098;2023-02-12T09:03:28;6.80;88.50
63094;DHT22;49183;51.380;0.098;2023-02-12T09:05:56;6.80;88.40
63094;DHT22;49183;51.380;0.098;2023-02-12T09:08:24;6.90;88.30
63094;DHT22;49183;51.380;0.098;2023-02-12T09:10:51;6.90;88.20
63094;DHT22;49183;51.380;0.098;2023-02-12T09:13:18;6.90;88.20
63094;DHT22;49183;51.380;0.098;2023-02-12T09:15:46;7.00;88.10
63094;DHT22;49183;51.380;0.098;2023-02-12T09:18:14;7.10;88.00
63094;DHT22;49183;51.380;0.098;2023-02-12T09:20:43;7.10;87.90
63094;DHT22;49183;51.380;0.098;2023-02-12T09:23:12;7.20;87.80
63094;DHT22;49183;51.380;0.098;2023-02-12T09:25:43;7.20;87.70
63094;DHT22;49183;51.380;0.098;2023-02-12T09:28:11;7.30;87.60
63094;DHT22;49183;51.380;0.098;2023-02-12T09:30:40;7.30;87.40
63094;DHT22;49183;51.380;0.098;2023-02-12T09:33:08;7.40;87.30
63094;DHT22;49183;51.380;0.098;2023-02-12T09:35:36;7.50;87.20
63094;DHT22;49183;51.380;0.098;2023-02-12T09:38:04;7.50;87.10
63094;DHT22;49183;51.380;0.098;2023-02-12T09:51:02;7.80;86.30
63094;DHT22;49183;51.380;0.098;2023-02-12T09:53:34;7.90;86.20
63094;DHT22;49183;51.380;0.098;2023-02-12T09:56:12;7.90;86.00
63094;DHT22;49183;51.380;0.098;2023-02-12T09:58:44;7.90;85.90
63094;DHT22;49183;51.380;0.098;2023-02-12T10:01:14;8.00;85.80
63094;DHT22;49183;51.380;0.098;2023-02-12T10:03:42;8.10;85.60
63094;DHT22;49183;51.380;0.098;2023-02-12T10:06:14;8.10;85.20
63094;DHT22;49183;51.380;0.098;2023-02-12T10:08:45;8.20;85.00
63094;DHT22;49183;51.380;0.098;2023-02-12T10:11:35;8.20;84.90
63094;DHT22;49183;51.380;0.098;2023-02-12T10:14:28;8.30;84.60
63094;DHT22;49183;51.380;0.098;2023-02-12T10:17:06;8.30;84.40
63094;DHT22;49183;51.380;0.098;2023-02-12T10:24:58;8.50;83.70
63094;DHT22;49183;51.380;0.098;2023-02-12T10:27:39;8.60;83.50
63094;DHT22;49183;51.380;0.098;2023-02-12T10:33:16;8.70;83.00
63094;DHT22;49183;51.380;0.098;2023-02-12T10:35:53;8.70;82.30
63094;DHT22;49183;51.380;0.098;2023-02-12T10:38:24;8.70;81.70
63094;DHT22;49183;51.380;0.098;2023-02-12T10:40:54;8.70;81.60
63094;DHT22;49183;51.380;0.098;2023-02-12T10:43:24;8.80;81.40
63094;DHT22;49183;51.380;0.098;2023-02-12T10:45:51;8.80;81.40
63094;DHT22;49183;51.380;0.098;2023-02-12T10:48:28;8.80;80.90
63094;DHT22;49183;51.380;0.098;2023-02-12T10:53:38;8.80;80.20
63094;DHT22;49183;51.380;0.098;2023-02-12T10:56:16;8.80;80.10
63094;DHT22;49183;51.380;0.098;2023-02-12T10:58:55;8.80;79.90
63094;DHT22;49183;51.380;0.098;2023-02-12T11:01:24;8.80;79.60
63094;DHT22;49183;51.380;0.098;2023-02-12T11:03:53;8.80;79.30
63094;DHT22;49183;51.380;0.098;2023-02-12T11:06:25;8.80;78.70
63094;DHT22;49183;51.380;0.098;2023-02-12T11:08:54;8.90;78.70
63094;DHT22;49183;51.380;0.098;2023-02-12T11:13:56;9.00;78.10
63094;DHT22;49183;51.380;0.098;2023-02-12T11:16:28;9.00;77.70
63094;DHT22;49183;51.380;0.098;2023-02-12T11:18:59;9.10;77.60
63094;DHT22;49183;51.380;0.098;2023-02-12T11:21:27;9.20;77.50
63094;DHT22;49183;51.380;0.098;2023-02-12T11:23:54;9.20;77.10
63094;DHT22;49183;51.380;0.098;2023-02-12T11:26:26;9.20;76.80
63094;DHT22;49183;51.380;0.098;2023-02-12T11:28:59;9.30;76.20
63094;DHT22;49183;51.380;0.098;2023-02-12T11:31:31;9.30;76.10
63094;DHT22;49183;51.380;0.098;2023-02-12T11:34:06;9.40;76.10
63094;DHT22;49183;51.380;0.098;2023-02-12T11:36:35;9.40;75.80
63094;DHT22;49183;51.380;0.098;2023-02-12T11:39:03;9.40;75.80
63094;DHT22;49183;51.380;0.098;2023-02-12T11:41:40;9.50;75.30
63094;DHT22;49183;51.380;0.098;2023-02-12T11:44:18;9.50;74.80
63094;DHT22;49183;51.380;0.098;2023-02-12T11:46:48;9.50;74.40
63094;DHT22;49183;51.380;0.098;2023-02-12T11:49:27;9.50;74.40
63094;DHT22;49183;51.380;0.098;2023-02-12T11:51:55;9.50;74.30
63094;DHT22;49183;51.380;0.098;2023-02-12T11:54:24;9.50;74.30
63094;DHT22;49183;51.380;0.098;2023-02-12T11:56:53;9.40;73.60
63094;DHT22;49183;51.380;0.098;2023-02-12T12:01:55;9.40;73.70
63094;DHT22;49183;51.380;0.098;2023-02-12T12:04:25;9.40;73.50
63094;DHT22;49183;51.380;0.098;2023-02-12T12:06:59;9.40;73.30
63094;DHT22;49183;51.380;0.098;2023-02-12T12:09:31;9.40;73.00
63094;DHT22;49183;51.380;0.098;2023-02-12T12:14:58;9.40;72.90
63094;DHT22;49183;51.380;0.098;2023-02-12T12:17:50;9.40;72.90
63094;DHT22;49183;51.380;0.098;2023-02-12T12:20:42;9.50;72.70
63094;DHT22;49183;51.380;0.098;2023-02-12T12:23:16;9.50;72.40
63094;DHT22;49183;51.380;0.098;2023-02-12T12:25:46;9.50;72.20
63094;DHT22;49183;51.380;0.098;2023-02-12T12:41:25;9.70;72.70
63094;DHT22;49183;51.380;0.098;2023-02-12T13:00:24;9.80;71.80
63094;DHT22;49183;51.380;0.098;2023-02-12T13:13:32;9.70;71.20
63094;DHT22;49183;51.380;0.098;2023-02-12T13:18:54;9.70;71.10
63094;DHT22;49183;51.380;0.098;2023-02-12T13:24:02;9.70;71.20
63094;DHT22;49183;51.380;0.098;2023-02-12T13:29:23;9.60;70.80
63094;DHT22;49183;51.380;0.098;2023-02-12T13:34:20;9.70;71.20
63094;DHT22;49183;51.380;0.098;2023-02-12T13:39:34;9.80;71.30
63094;DHT22;49183;51.380;0.098;2023-02-12T13:42:07;9.80;71.40
63094;DHT22;49183;51.380;0.098;2023-02-12T13:57:18;9.80;70.50
63094;DHT22;49183;51.380;0.098;2023-02-12T13:59:47;9.80;70.30
63094;DHT22;49183;51.380;0.098;2023-02-12T14:03:03;9.80;70.30
63094;DHT22;49183;51.380;0.098;2023-02-12T14:05:13;9.80;70.20
63094;DHT22;49183;51.380;0.098;2023-02-12T14:10:18;9.80;70.10
63094;DHT22;49183;51.380;0.098;2023-02-12T14:12:47;9.80;70.20
63094;DHT22;49183;51.380;0.098;2023-02-12T14:15:24;9.80;70.10
63094;DHT22;49183;51.380;0.098;2023-02-12T14:27:16;9.70;69.80
63094;DHT22;49183;51.380;0.098;2023-02-12T14:37:53;9.70;69.80
63094;DHT22;49183;51.380;0.098;2023-02-12T14:43:22;9.70;70.10
63094;DHT22;49183;51.380;0.098;2023-02-12T14:45:50;9.70;70.20
63094;DHT22;49183;51.380;0.098;2023-02-12T14:51:09;9.80;70.10
63094;DHT22;49183;51.380;0.098;2023-02-12T15:06:18;9.50;69.80
63094;DHT22;49183;51.380;0.098;2023-02-12T15:08:57;9.50;70.00
63094;DHT22;49183;51.380;0.098;2023-02-12T15:11:34;9.50;69.80
63094;DHT22;49183;51.380;0.098;2023-02-12T15:14:06;9.40;69.60
63094;DHT22;49183;51.380;0.098;2023-02-12T15:19:19;9.40;70.10
63094;DHT22;49183;51.380;0.098;2023-02-12T15:21:50;9.40;70.30
63094;DHT22;49183;51.380;0.098;2023-02-12T15:24:21;9.40;70.40
63094;DHT22;49183;51.380;0.098;2023-02-12T15:26:53;9.40;70.50
63094;DHT22;49183;51.380;0.098;2023-02-12T15:29:26;9.40;70.50
63094;DHT22;49183;51.380;0.098;2023-02-12T15:31:55;9.40;70.50
63094;DHT22;49183;51.380;0.098;2023-02-12T15:34:25;9.40;70.50
63094;DHT22;49183;51.380;0.098;2023-02-12T15:36:54;9.30;70.60
63094;DHT22;49183;51.380;0.098;2023-02-12T15:39:23;9.30;70.80
63094;DHT22;49183;51.380;0.098;2023-02-12T15:41:51;9.30;70.80
63094;DHT22;49183;51.380;0.098;2023-02-12T15:47:02;9.30;71.00
63094;DHT22;49183;51.380;0.098;2023-02-12T15:49:37;9.20;71.10
63094;DHT22;49183;51.380;0.098;2023-02-12T15:52:07;9.20;71.20
63094;DHT22;49183;51.380;0.098;2023-02-12T15:54:34;9.20;71.30
63094;DHT22;49183;51.380;0.098;2023-02-12T15:57:08;9.20;71.40
63094;DHT22;49183;51.380;0.098;2023-02-12T15:59:36;9.10;71.40
63094;DHT22;49183;51.380;0.098;2023-02-12T16:02:13;9.10;71.30
63094;DHT22;49183;51.380;0.098;2023-02-12T16:04:43;9.00;71.50
63094;DHT22;49183;51.380;0.098;2023-02-12T16:07:11;8.90;71.60
63094;DHT22;49183;51.380;0.098;2023-02-12T16:09:39;8.90;71.70
63094;DHT22;49183;51.380;0.098;2023-02-12T16:12:09;8.90;71.70
63094;DHT22;49183;51.380;0.098;2023-02-12T16:14:44;8.80;71.80
63094;DHT22;49183;51.380;0.098;2023-02-12T16:17:26;8.80;72.00
63094;DHT22;49183;51.380;0.098;2023-02-12T16:19:58;8.70;72.20
63094;DHT22;49183;51.380;0.098;2023-02-12T16:22:27;8.70;72.30
63094;DHT22;49183;51.380;0.098;2023-02-12T16:24:55;8.60;72.40
63094;DHT22;49183;51.380;0.098;2023-02-12T16:27:26;8.60;72.50
63094;DHT22;49183;51.380;0.098;2023-02-12T16:29:56;8.50;72.70
63094;DHT22;49183;51.380;0.098;2023-02-12T16:32:25;8.50;72.80
63094;DHT22;49183;51.380;0.098;2023-02-12T16:34:58;8.40;72.90
63094;DHT22;49183;51.380;0.098;2023-02-12T16:50:15;8.10;73.60
63094;DHT22;49183;51.380;0.098;2023-02-12T16:52:43;8.10;73.70
63094;DHT22;49183;51.380;0.098;2023-02-12T16:58:38;8.00;73.90
63094;DHT22;49183;51.380;0.098;2023-02-12T17:04:23;7.90;74.10
63094;DHT22;49183;51.380;0.098;2023-02-12T17:07:01;7.80;74.30
63094;DHT22;49183;51.380;0.098;2023-02-12T17:12:18;7.80;74.50
63094;DHT22;49183;51.380;0.098;2023-02-12T17:35:37;7.30;75.50
63094;DHT22;49183;51.380;0.098;2023-02-12T17:38:05;7.30;75.70
63094;DHT22;49183;51.380;0.098;2023-02-12T18:04:14;6.80;76.80
63094;DHT22;49183;51.380;0.098;2023-02-12T18:06:42;6.80;76.90
63094;DHT22;49183;51.380;0.098;2023-02-12T18:54:04;5.90;79.00
63094;DHT22;49183;51.380;0.098;2023-02-12T19:13:04;5.30;80.40
63094;DHT22;49183;51.380;0.098;2023-02-12T19:15:31;5.20;80.60
63094;DHT22;49183;51.380;0.098;2023-02-12T19:17:58;5.10;80.80
63094;DHT22;49183;51.380;0.098;2023-02-12T19:20:26;5.00;80.90
63094;DHT22;49183;51.380;0.098;2023-02-12T19:25:53;4.90;81.10
63094;DHT22;49183;51.380;0.098;2023-02-12T19:28:32;4.80;81.30
63094;DHT22;49183;51.380;0.098;2023-02-12T19:31:11;4.80;81.40
